createdAt,value
2023-03-05T00:01:16.682Z,23.85
2023-03-05T00:03:44.779Z,24.48
2023-03-05T00:06:12.414Z,26.70
2023-03-05T00:08:39.738Z,24.15
2023-03-05T00:11:11.845Z,23.80
2023-03-05T00:13:39.688Z,23.77
2023-03-05T00:16:10.454Z,28.02
2023-03-05T00:18:38.632Z,25.63
2023-03-05T00:21:23.287Z,23.10
2023-03-05T00:23:51.172Z,21.88
2023-03-05T00:26:23.648Z,24.27
2023-03-05T00:28:52.460Z,19.92
2023-03-05T00:31:26.556Z,24.70
2023-03-05T00:33:57.764Z,25.15
2023-03-05T00:36:30.581Z,23.02
2023-03-05T00:38:58.549Z,25.15
2023-03-05T00:41:30.627Z,21.70
2023-03-05T00:43:57.942Z,23.33
2023-03-05T00:46:27.505Z,22.67
2023-03-05T00:48:57.625Z,22.50
2023-03-05T00:51:27.478Z,24.13
2023-03-05T00:53:55.572Z,21.23
2023-03-05T00:56:25.105Z,24.60
2023-03-05T00:58:53.400Z,22.90
2023-03-05T01:01:20.734Z,24.30
2023-03-05T01:03:50.471Z,20.35
2023-03-05T01:06:18.393Z,21.05
2023-03-05T01:08:45.896Z,21.17
2023-03-05T01:11:13.721Z,22.30
2023-03-05T01:13:43.502Z,21.23
2023-03-05T01:16:13.187Z,23.55
2023-03-05T01:18:41.039Z,21.25
2023-03-05T01:21:08.804Z,23.35
2023-03-05T01:23:37.418Z,23.33
2023-03-05T01:26:08.528Z,21.15
2023-03-05T01:28:35.937Z,19.02
2023-03-05T01:31:09.871Z,17.67
2023-03-05T01:33:37.292Z,21.77
2023-03-05T01:36:09.019Z,23.27
2023-03-05T01:41:03.389Z,19.35
2023-03-05T01:43:33.857Z,20.98
2023-03-05T01:46:26.529Z,21.52
2023-03-05T01:48:59.680Z,23.47
2023-03-05T01:51:29.642Z,20.90
2023-03-05T01:54:00.531Z,22.17
2023-03-05T01:56:29.938Z,19.40
2023-03-05T01:59:03.558Z,24.08
2023-03-05T02:01:40.995Z,21.30
2023-03-05T02:04:15.873Z,21.30
2023-03-05T02:06:44.792Z,23.05
2023-03-05T02:09:12.227Z,23.65
2023-03-05T02:11:39.876Z,20.25
2023-03-05T02:14:10.149Z,24.15
2023-03-05T02:16:43.743Z,22.83
2023-03-05T02:19:17.322Z,21.80
2023-03-05T02:21:47.681Z,23.08
2023-03-05T02:24:17.272Z,22.23
2023-03-05T02:26:48.855Z,23.85
2023-03-05T02:29:20.711Z,22.35
2023-03-05T02:31:50.318Z,23.50
2023-03-05T02:34:19.988Z,21.70
2023-03-05T02:36:50.769Z,25.73
2023-03-05T02:39:20.318Z,28.40
2023-03-05T02:41:50.049Z,26.73
2023-03-05T02:44:17.309Z,25.77
2023-03-05T02:46:44.634Z,25.83
2023-03-05T02:49:16.986Z,23.15
2023-03-05T02:51:46.455Z,24.65
2023-03-05T02:54:13.696Z,26.05
2023-03-05T02:56:40.979Z,24.65
2023-03-05T02:59:10.770Z,24.30
2023-03-05T03:01:40.439Z,23.88
2023-03-05T03:04:10.056Z,23.00
2023-03-05T03:06:39.699Z,22.83
2023-03-05T03:09:06.960Z,24.23
2023-03-05T03:11:34.286Z,22.35
2023-03-05T03:14:03.653Z,24.42
2023-03-05T03:16:30.889Z,24.92
2023-03-05T03:18:58.157Z,23.13
2023-03-05T03:21:28.268Z,23.35
2023-03-05T03:23:55.602Z,22.85
2023-03-05T03:26:22.863Z,22.85
2023-03-05T03:28:52.403Z,25.63
2023-03-05T03:31:22.087Z,24.15
2023-03-05T03:33:49.675Z,23.10
2023-03-05T03:36:17.039Z,24.42
2023-03-05T03:38:46.708Z,25.10
2023-03-05T03:41:20.080Z,25.92
2023-03-05T03:43:47.341Z,22.70
2023-03-05T03:46:17.653Z,23.77
2023-03-05T03:48:44.964Z,23.52
2023-03-05T03:51:12.204Z,25.13
2023-03-05T03:53:39.566Z,25.73
2023-03-05T03:56:07.141Z,23.23
2023-03-05T03:58:36.535Z,23.40
2023-03-05T04:01:04.001Z,25.25
2023-03-05T04:03:31.395Z,27.05
2023-03-05T04:06:01.085Z,24.15
2023-03-05T04:08:28.468Z,26.65
2023-03-05T04:10:55.725Z,26.70
2023-03-05T04:13:23.037Z,26.25
2023-03-05T04:15:50.541Z,25.52
2023-03-05T04:18:17.907Z,24.55
2023-03-05T04:20:47.705Z,28.13
2023-03-05T04:23:15.410Z,27.02
2023-03-05T04:25:42.681Z,28.37
2023-03-05T04:28:09.981Z,26.83
2023-03-05T04:30:39.576Z,28.60
2023-03-05T04:33:09.491Z,28.80
2023-03-05T04:35:37.080Z,28.88
2023-03-05T04:38:06.917Z,28.73
2023-03-05T04:40:34.616Z,26.98
2023-03-05T04:43:04.118Z,27.95
2023-03-05T04:45:31.821Z,28.42
2023-03-05T04:47:59.581Z,30.35
2023-03-05T04:50:26.971Z,35.17
2023-03-05T04:52:54.638Z,35.88
2023-03-05T04:55:24.395Z,31.85
2023-03-05T04:57:51.646Z,29.83
2023-03-05T05:00:21.794Z,30.77
2023-03-05T05:02:51.285Z,28.10
2023-03-05T05:05:21.502Z,28.73
2023-03-05T05:07:49.212Z,26.30
2023-03-05T05:10:16.969Z,27.70
2023-03-05T05:12:51.371Z,25.07
2023-03-05T05:15:19.238Z,24.63
2023-03-05T05:17:47.207Z,26.60
2023-03-05T05:20:18.297Z,26.15
2023-03-05T05:22:45.689Z,24.90
2023-03-05T05:25:15.091Z,26.85
2023-03-05T05:27:42.527Z,26.77
2023-03-05T05:30:10.615Z,27.40
2023-03-05T05:32:37.985Z,27.40
2023-03-05T05:35:05.711Z,26.42
2023-03-05T05:37:35.372Z,27.65
2023-03-05T05:40:05.377Z,28.33
2023-03-05T05:42:33.386Z,28.10
2023-03-05T05:45:02.950Z,23.25
2023-03-05T05:47:30.769Z,26.48
2023-03-05T05:49:58.143Z,26.42
2023-03-05T05:52:27.992Z,25.60
2023-03-05T05:54:55.287Z,26.73
2023-03-05T05:57:22.582Z,26.48
2023-03-05T05:59:52.438Z,27.73
2023-03-05T06:02:19.754Z,25.10
2023-03-05T06:04:47.188Z,26.00
2023-03-05T06:07:14.486Z,27.90
2023-03-05T06:09:41.924Z,27.30
2023-03-05T06:12:09.279Z,29.40
2023-03-05T06:14:36.784Z,24.23
2023-03-05T06:17:11.242Z,25.33
2023-03-05T06:19:40.211Z,21.70
2023-03-05T06:22:07.858Z,23.80
2023-03-05T06:24:37.654Z,25.90
2023-03-05T06:27:06.016Z,24.38
2023-03-05T06:29:33.400Z,24.42
2023-03-05T06:32:00.758Z,26.80
2023-03-05T06:34:30.336Z,23.23
2023-03-05T06:36:57.677Z,25.85
2023-03-05T06:39:24.928Z,24.75
2023-03-05T06:41:52.306Z,25.75
2023-03-05T06:44:25.779Z,27.30
2023-03-05T06:46:53.204Z,27.70
2023-03-05T06:49:20.807Z,29.98
2023-03-05T06:51:48.206Z,26.10
2023-03-05T06:54:21.349Z,28.77
2023-03-05T06:56:48.620Z,29.13
2023-03-05T06:59:16.934Z,27.83
2023-03-05T07:01:45.363Z,27.25
2023-03-05T07:04:13.691Z,29.97
2023-03-05T07:06:44.761Z,29.20
2023-03-05T07:09:15.200Z,25.75
2023-03-05T07:11:42.715Z,25.90
2023-03-05T07:14:10.068Z,27.90
2023-03-05T07:16:39.559Z,29.08
2023-03-05T07:19:08.013Z,27.63
2023-03-05T07:21:39.860Z,28.48
2023-03-05T07:24:12.348Z,26.08
2023-03-05T07:26:39.618Z,27.60
2023-03-05T07:29:09.375Z,28.65
2023-03-05T07:31:36.960Z,25.63
2023-03-05T07:34:04.405Z,27.48
2023-03-05T07:36:31.889Z,27.88
2023-03-05T07:39:01.982Z,28.50
2023-03-05T07:41:29.308Z,27.45
2023-03-05T07:43:56.722Z,27.98
2023-03-05T07:46:27.764Z,28.33
2023-03-05T07:48:55.865Z,29.67
2023-03-05T07:51:27.156Z,30.73
2023-03-05T07:53:57.546Z,31.50
2023-03-05T07:56:35.356Z,28.58
2023-03-05T07:59:09.266Z,30.30
2023-03-05T08:01:37.346Z,28.10
2023-03-05T08:04:07.178Z,33.15
2023-03-05T08:06:34.517Z,37.47
2023-03-05T08:09:01.843Z,35.83
2023-03-05T08:11:29.355Z,33.80
2023-03-05T08:13:59.558Z,28.48
2023-03-05T08:16:27.717Z,33.28
2023-03-05T08:18:57.371Z,32.53
2023-03-05T08:21:35.796Z,32.33
2023-03-05T08:24:08.152Z,40.70
2023-03-05T08:26:39.524Z,35.65
2023-03-05T08:29:11.046Z,33.30
2023-03-05T08:31:39.509Z,32.97
2023-03-05T08:34:07.219Z,31.35
2023-03-05T08:36:34.540Z,39.03
2023-03-05T08:39:06.777Z,35.92
2023-03-05T08:41:36.721Z,36.65
2023-03-05T08:44:07.194Z,30.25
2023-03-05T08:46:38.914Z,37.22
2023-03-05T08:51:35.947Z,30.65
2023-03-05T08:54:07.533Z,27.90
2023-03-05T08:56:37.662Z,28.80
2023-03-05T08:59:05.838Z,28.75
2023-03-05T09:01:33.230Z,31.48
2023-03-05T09:04:01.231Z,29.23
2023-03-05T09:06:31.092Z,28.73
2023-03-05T09:08:58.405Z,29.00
2023-03-05T09:11:25.783Z,29.58
2023-03-05T09:13:53.040Z,30.75
2023-03-05T09:16:23.388Z,27.42
2023-03-05T09:18:50.751Z,28.15
2023-03-05T09:21:20.811Z,30.20
2023-03-05T09:23:48.229Z,28.08
2023-03-05T09:26:19.481Z,27.92
2023-03-05T09:28:47.785Z,23.85
2023-03-05T09:31:17.740Z,27.83
2023-03-05T09:33:45.080Z,24.27
2023-03-05T09:36:25.186Z,24.85
2023-03-05T09:38:52.844Z,25.58
2023-03-05T09:41:53.988Z,23.67
2023-03-05T09:44:36.298Z,25.85
2023-03-05T09:47:22.457Z,23.90
2023-03-05T09:50:01.541Z,23.88
2023-03-05T09:52:46.643Z,22.48
2023-03-05T09:55:43.910Z,21.52
2023-03-05T09:58:35.706Z,24.05
2023-03-05T10:01:10.820Z,21.15
2023-03-05T10:03:41.267Z,23.48
2023-03-05T10:06:11.625Z,23.88
2023-03-05T10:08:48.903Z,22.65
2023-03-05T10:11:38.043Z,22.80
2023-03-05T10:14:09.280Z,21.27
2023-03-05T10:16:45.518Z,21.88
2023-03-05T10:19:33.170Z,24.95
2023-03-05T10:22:24.322Z,20.55
2023-03-05T10:25:06.642Z,21.83
2023-03-05T10:27:45.767Z,22.30
2023-03-05T10:30:41.209Z,22.00
2023-03-05T10:33:41.922Z,21.73
2023-03-05T10:36:45.994Z,20.15
2023-03-05T10:39:50.245Z,21.85
2023-03-05T10:42:31.347Z,23.00
2023-03-05T10:45:01.181Z,23.88
2023-03-05T10:47:58.543Z,22.38
2023-03-05T10:50:36.609Z,20.58
2023-03-05T10:53:24.414Z,28.05
2023-03-05T10:55:56.202Z,22.70
2023-03-05T11:01:18.927Z,20.48
2023-03-05T11:03:57.838Z,20.70
2023-03-05T11:06:32.239Z,19.55
2023-03-05T11:09:29.278Z,21.02
2023-03-05T11:12:19.666Z,21.50
2023-03-05T11:15:03.788Z,26.13
2023-03-05T11:17:33.127Z,20.77
2023-03-05T11:20:31.605Z,21.10
2023-03-05T11:23:08.728Z,19.45
2023-03-05T11:25:58.672Z,20.60
2023-03-05T11:28:39.496Z,18.45
2023-03-05T11:31:16.099Z,19.70
2023-03-05T11:33:56.815Z,18.67
2023-03-05T11:36:39.081Z,19.35
2023-03-05T11:39:06.599Z,19.52
2023-03-05T11:41:52.597Z,18.63
2023-03-05T11:44:29.569Z,16.10
2023-03-05T11:47:18.806Z,18.65
2023-03-05T11:49:50.458Z,18.60
2023-03-05T11:52:39.021Z,16.83
2023-03-05T11:55:41.420Z,17.33
2023-03-05T11:58:39.442Z,20.10
2023-03-05T12:01:19.388Z,18.35
2023-03-05T12:03:49.816Z,18.52
2023-03-05T12:06:38.373Z,15.68
2023-03-05T12:09:28.413Z,19.27
2023-03-05T12:12:21.804Z,15.90
2023-03-05T12:14:58.120Z,16.73
2023-03-05T12:17:38.653Z,18.27
2023-03-05T12:20:38.512Z,18.88
2023-03-05T12:23:05.880Z,18.95
2023-03-05T12:25:47.066Z,18.42
2023-03-05T12:28:43.152Z,16.42
2023-03-05T12:31:10.515Z,20.08
2023-03-05T12:33:42.955Z,17.65
2023-03-05T12:36:22.088Z,20.83
2023-03-05T12:38:56.905Z,17.95
2023-03-05T12:41:25.433Z,17.23
2023-03-05T12:44:06.359Z,19.52
2023-03-05T12:46:37.491Z,18.48
2023-03-05T12:49:20.444Z,16.63
2023-03-05T12:51:49.898Z,16.10
2023-03-05T12:54:22.949Z,20.05
2023-03-05T12:56:52.296Z,18.67
2023-03-05T12:59:23.327Z,18.02
2023-03-05T13:02:04.875Z,18.08
2023-03-05T13:04:37.042Z,19.25
2023-03-05T13:07:12.668Z,17.08
2023-03-05T13:09:40.065Z,19.15
2023-03-05T13:12:13.977Z,18.58
2023-03-05T13:14:46.641Z,18.65
2023-03-05T13:17:34.750Z,19.45
2023-03-05T13:20:07.514Z,18.30
2023-03-05T13:22:38.972Z,16.90
2023-03-05T13:25:20.638Z,17.30
2023-03-05T13:27:47.972Z,18.63
2023-03-05T13:30:35.562Z,19.90
2023-03-05T13:33:04.784Z,17.10
2023-03-05T13:35:33.063Z,16.83
2023-03-05T13:38:02.619Z,16.67
2023-03-05T13:40:35.082Z,19.20
2023-03-05T13:43:20.668Z,16.45
2023-03-05T13:45:58.512Z,18.92
2023-03-05T13:48:28.105Z,18.10
2023-03-05T13:50:59.147Z,19.63
2023-03-05T13:53:31.591Z,19.00
2023-03-05T13:56:06.290Z,19.90
2023-03-05T13:58:54.460Z,19.25
2023-03-05T14:01:36.885Z,19.25
2023-03-05T14:04:26.256Z,19.48
2023-03-05T14:07:01.417Z,19.05
2023-03-05T14:09:31.771Z,17.55
2023-03-05T14:12:08.731Z,18.67
2023-03-05T14:14:38.162Z,18.35
2023-03-05T14:17:27.658Z,18.77
2023-03-05T14:20:16.814Z,17.88
2023-03-05T14:22:46.226Z,17.80
2023-03-05T14:25:35.473Z,19.98
2023-03-05T14:28:05.567Z,18.58
2023-03-05T14:30:36.360Z,18.85
2023-03-05T14:33:04.557Z,17.27
2023-03-05T14:35:34.363Z,18.65
2023-03-05T14:38:02.062Z,19.55
2023-03-05T14:40:33.198Z,16.25
2023-03-05T14:43:01.261Z,14.57
2023-03-05T14:45:30.099Z,16.90
2023-03-05T14:48:00.401Z,14.20
2023-03-05T14:50:37.606Z,15.02
2023-03-05T14:53:13.725Z,16.13
2023-03-05T14:55:43.869Z,14.07
2023-03-05T14:58:18.774Z,13.10
2023-03-05T15:00:46.100Z,15.18
2023-03-05T15:03:15.325Z,15.57
2023-03-05T15:05:44.618Z,13.68
2023-03-05T15:08:20.380Z,14.05
2023-03-05T15:10:50.153Z,14.40
2023-03-05T15:13:22.447Z,13.60
2023-03-05T15:15:54.057Z,15.25
2023-03-05T15:18:22.724Z,12.57
2023-03-05T15:20:52.030Z,14.88
2023-03-05T15:23:21.927Z,12.07
2023-03-05T15:25:49.587Z,12.15
2023-03-05T15:28:20.398Z,12.80
2023-03-05T15:30:48.038Z,14.97
2023-03-05T15:33:17.471Z,16.70
2023-03-05T15:35:45.412Z,13.68
2023-03-05T15:38:15.333Z,15.68
2023-03-05T15:40:44.208Z,13.20
2023-03-05T15:43:11.705Z,14.15
2023-03-05T15:45:41.301Z,13.30
2023-03-05T15:48:11.199Z,15.40
2023-03-05T15:50:43.759Z,12.85
2023-03-05T15:53:17.018Z,11.40
2023-03-05T15:55:48.943Z,14.25
2023-03-05T15:58:17.334Z,13.52
2023-03-05T16:00:49.644Z,13.40
2023-03-05T16:03:17.196Z,13.40
2023-03-05T16:05:47.598Z,14.60
2023-03-05T16:08:15.318Z,15.48
2023-03-05T16:10:47.266Z,14.25
2023-03-05T16:13:18.607Z,12.82
2023-03-05T16:15:54.187Z,17.02
2023-03-05T16:18:23.039Z,14.77
2023-03-05T16:20:56.387Z,15.57
2023-03-05T16:23:24.562Z,17.40
2023-03-05T16:25:52.649Z,15.20
2023-03-05T16:28:19.981Z,16.50
2023-03-05T16:30:56.268Z,15.18
2023-03-05T16:33:26.031Z,18.20
2023-03-05T16:36:22.827Z,14.23
2023-03-05T16:38:54.907Z,17.38
2023-03-05T16:41:24.375Z,17.48
2023-03-05T16:43:58.184Z,19.13
2023-03-05T16:46:29.857Z,17.90
2023-03-05T16:48:58.441Z,20.67
2023-03-05T16:51:28.901Z,20.17
2023-03-05T16:53:56.354Z,22.85
2023-03-05T16:56:24.053Z,19.40
2023-03-05T16:58:53.720Z,16.52
2023-03-05T17:01:22.012Z,22.98
2023-03-05T17:03:50.771Z,19.92
2023-03-05T17:06:24.051Z,19.77
2023-03-05T17:08:54.929Z,21.02
2023-03-05T17:11:23.669Z,24.67
2023-03-05T17:13:51.208Z,29.40
2023-03-05T17:16:19.873Z,27.60
2023-03-05T17:18:50.754Z,21.63
2023-03-05T17:21:18.090Z,21.73
2023-03-05T17:23:45.699Z,18.40
2023-03-05T17:26:15.981Z,19.48
2023-03-05T17:28:44.094Z,18.77
2023-03-05T17:31:12.771Z,19.92
2023-03-05T17:33:41.719Z,18.52
2023-03-05T17:36:21.925Z,17.92
2023-03-05T17:38:53.213Z,17.30
2023-03-05T17:41:23.765Z,16.90
2023-03-05T17:43:56.168Z,17.50
2023-03-05T17:46:50.167Z,17.05
2023-03-05T17:49:20.367Z,16.67
2023-03-05T17:51:56.417Z,21.23
2023-03-05T17:54:24.088Z,17.73
2023-03-05T17:56:57.987Z,18.20
2023-03-05T17:59:26.259Z,18.70
2023-03-05T18:01:54.047Z,16.55
2023-03-05T18:07:55.306Z,17.98
2023-03-05T18:10:25.074Z,16.60
2023-03-05T18:12:55.531Z,18.13
2023-03-05T18:15:27.744Z,18.80
2023-03-05T18:18:00.637Z,15.13
2023-03-05T18:20:34.478Z,19.65
2023-03-05T18:23:12.672Z,16.23
2023-03-05T18:25:44.728Z,18.42
2023-03-05T18:28:14.846Z,15.88
2023-03-05T18:30:46.418Z,15.32
2023-03-05T18:33:23.145Z,14.95
2023-03-05T18:35:56.571Z,17.50
2023-03-05T18:38:26.034Z,16.13
2023-03-05T18:40:58.259Z,16.90
2023-03-05T18:43:25.757Z,14.55
2023-03-05T18:46:31.882Z,15.25
2023-03-05T18:49:02.031Z,15.48
2023-03-05T18:51:29.996Z,17.65
2023-03-05T18:53:57.717Z,16.88
2023-03-05T18:56:25.994Z,16.55
2023-03-05T18:58:58.883Z,18.08
2023-03-05T19:01:27.905Z,20.02
2023-03-05T19:03:55.918Z,16.48
2023-03-05T19:06:26.329Z,13.98
2023-03-05T19:09:47.065Z,14.52
2023-03-05T19:12:19.710Z,14.75
2023-03-05T19:14:49.556Z,13.30
2023-03-05T19:17:17.247Z,11.48
2023-03-05T19:19:50.234Z,12.98
2023-03-05T19:22:17.715Z,12.80
2023-03-05T19:25:17.342Z,14.40
2023-03-05T19:27:47.479Z,13.00
2023-03-05T19:30:23.439Z,13.73
2023-03-05T19:32:58.099Z,10.02
2023-03-05T19:35:26.165Z,14.75
2023-03-05T19:37:57.041Z,11.10
2023-03-05T19:40:24.580Z,13.67
2023-03-05T19:42:52.210Z,10.30
2023-03-05T19:45:22.455Z,11.35
2023-03-05T19:47:49.972Z,11.93
2023-03-05T19:50:17.579Z,11.60
2023-03-05T19:52:52.973Z,12.57
2023-03-05T19:55:23.211Z,11.10
2023-03-05T19:57:50.668Z,14.85
2023-03-05T20:00:19.188Z,11.75
2023-03-05T20:02:48.826Z,12.70
2023-03-05T20:05:16.832Z,12.00
2023-03-05T20:07:44.677Z,14.50
2023-03-05T20:10:14.516Z,13.20
2023-03-05T20:12:48.139Z,13.48
2023-03-05T20:15:18.480Z,15.57
2023-03-05T20:17:48.638Z,13.23
2023-03-05T20:20:18.312Z,11.63
2023-03-05T20:22:50.418Z,13.90
2023-03-05T20:25:24.797Z,12.23
2023-03-05T20:27:52.732Z,15.32
2023-03-05T20:30:20.580Z,18.85
2023-03-05T20:32:48.092Z,17.25
2023-03-05T20:35:18.101Z,20.33
2023-03-05T20:38:31.184Z,25.95
2023-03-05T20:41:07.521Z,22.98
2023-03-05T20:43:41.286Z,16.90
2023-03-05T20:46:24.992Z,17.63
2023-03-05T20:48:55.905Z,15.45
2023-03-05T20:51:27.121Z,16.90
2023-03-05T20:53:58.367Z,20.10
2023-03-05T20:56:29.611Z,13.98
2023-03-05T20:59:00.470Z,14.40
2023-03-05T21:01:28.836Z,16.70
2023-03-05T21:03:59.933Z,16.58
2023-03-05T21:06:38.854Z,16.73
2023-03-05T21:09:07.200Z,17.55
2023-03-05T21:11:35.985Z,16.42
2023-03-05T21:14:03.591Z,16.92
2023-03-05T21:16:30.991Z,19.58
2023-03-05T21:18:58.539Z,19.38
2023-03-05T21:21:26.131Z,17.27
2023-03-05T21:23:58.893Z,19.98
2023-03-05T21:26:30.857Z,17.20
2023-03-05T21:28:59.748Z,19.70
2023-03-05T21:31:30.272Z,19.15
2023-03-05T21:33:57.798Z,19.13
2023-03-05T21:36:25.488Z,18.02
2023-03-05T21:38:55.423Z,17.52
2023-03-05T21:41:27.727Z,19.90
2023-03-05T21:43:55.283Z,19.92
2023-03-05T21:46:25.135Z,18.42
2023-03-05T21:48:52.733Z,21.38
2023-03-05T21:52:03.765Z,20.15
2023-03-05T21:54:31.321Z,19.73
2023-03-05T21:57:01.740Z,19.08
2023-03-05T21:59:32.153Z,21.20
2023-03-05T22:01:59.833Z,19.35
2023-03-05T22:04:27.951Z,17.30
2023-03-05T22:06:56.340Z,18.98
2023-03-05T22:09:24.709Z,18.80
2023-03-05T22:11:52.489Z,18.27
2023-03-05T22:14:20.707Z,18.95
2023-03-05T22:16:52.022Z,21.23
2023-03-05T22:19:22.520Z,19.60
2023-03-05T22:21:53.226Z,21.23
2023-03-05T22:24:29.530Z,22.60
2023-03-05T22:26:56.804Z,20.58
2023-03-05T22:29:24.332Z,19.33
2023-03-05T22:31:56.609Z,20.15
2023-03-05T22:34:29.947Z,17.30
2023-03-05T22:36:58.282Z,19.20
2023-03-05T22:39:28.098Z,19.30
2023-03-05T22:41:55.669Z,19.58
2023-03-05T22:44:25.038Z,23.50
2023-03-05T22:46:52.497Z,22.15
2023-03-05T22:49:27.710Z,19.25
2023-03-05T22:52:01.663Z,17.83
2023-03-05T22:54:29.299Z,18.75
2023-03-05T22:56:56.723Z,20.48
2023-03-05T22:59:25.046Z,19.33
2023-03-05T23:01:52.590Z,18.63
2023-03-05T23:04:51.324Z,18.85
2023-03-05T23:07:26.308Z,19.45
2023-03-05T23:10:04.916Z,19.50
2023-03-05T23:12:37.561Z,19.20
2023-03-05T23:15:12.073Z,20.52
2023-03-05T23:17:39.699Z,20.50
2023-03-05T23:20:10.141Z,20.73
2023-03-05T23:22:41.583Z,19.15
2023-03-05T23:25:22.149Z,18.35
2023-03-05T23:27:53.243Z,18.85
2023-03-05T23:30:29.018Z,18.83
2023-03-05T23:32:59.949Z,19.05
2023-03-05T23:35:44.712Z,19.52
2023-03-05T23:38:13.742Z,16.90
2023-03-05T23:40:47.030Z,18.90
2023-03-05T23:43:15.863Z,20.73
2023-03-05T23:45:45.288Z,17.42
2023-03-05T23:48:12.829Z,18.73
2023-03-05T23:50:42.341Z,22.23
2023-03-05T23:53:22.868Z,19.65
2023-03-05T23:55:53.461Z,17.40
2023-03-05T23:58:24.817Z,19.17
